»·PEaware :: UAL576 KABQ-KLAS

UAL576 :: KABQ-KLAS

FLIGHT INFORMATION

Flight Status: Arrived
Operator:
United Airlines
More flights by this operator :: More flights under this callsign
Pilot: Anonymous 8274 (8274)
Aircraft: BOEING 737-200
(B732)
More flights by this aircraft type
Origin: KABQ Albuquerque Intl Sunport
United States
Destination: KLAS McCarran Intl
United States
More flights between these airports :: More routes between these airports
Route: +LARGO3 GUP J96 DRK KADDY2
File this flight plan on PilotEdge
Remarks: Southerly routing INTENTIONAL
Altitude:
(Current/Filed)
30,000ft
Speed:
(Current/Filed)
460kts
Departed: 26-Jul-18 06:37 PM
Arrived: 26-Jul-18 07:56 PM
Distance/Time
Traveled:
422nm/1:19
Distance/Time
To Go:
Arrived

Flight Plot

Page will automatically refresh every two minutes.

Flight plan parsing failed; only flown route is shown


Map Options




Map Legend


Flown Route
Filed Route
Departure Airport
Arrival Airport
Navaid (VOR, NDB)
Fix

Horizontal Profiles

Position Reports

Time Latitude Longitude Heading Altitude Ground
Speed
26-Jul-18 17:57 35.048784 -106.615557 180 5317ft 0kts
26-Jul-18 17:58 35.048784 -106.615557 180 5317ft 0kts
26-Jul-18 17:59 35.048784 -106.615557 180 5317ft 0kts
26-Jul-18 18:00 35.048784 -106.615557 180 5317ft 0kts
26-Jul-18 18:01 35.048784 -106.615557 180 5317ft 0kts
26-Jul-18 18:02 35.048784 -106.615557 180 5317ft 0kts
26-Jul-18 18:03 35.048784 -106.615557 180 5317ft 0kts
26-Jul-18 18:04 35.048784 -106.615557 180 5317ft 0kts
26-Jul-18 18:05 35.048784 -106.615557 180 5317ft 0kts
26-Jul-18 18:06 35.048784 -106.615557 180 5317ft 0kts
26-Jul-18 18:07 35.048784 -106.615557 180 5317ft 0kts
26-Jul-18 18:08 35.048784 -106.615557 180 5317ft 0kts
26-Jul-18 18:09 35.048784 -106.615557 180 5317ft 0kts
26-Jul-18 18:10 35.048784 -106.615557 180 5317ft 0kts
26-Jul-18 18:13 35.048784 -106.615557 180 5318ft 0kts
26-Jul-18 18:14 35.048784 -106.615557 180 5318ft 0kts
26-Jul-18 18:15 35.048784 -106.615557 180 5318ft 0kts
26-Jul-18 18:16 35.048784 -106.615557 180 5318ft 0kts
26-Jul-18 18:17 35.048784 -106.615557 180 5318ft 0kts
26-Jul-18 18:18 35.048784 -106.615557 180 5318ft 0kts
26-Jul-18 18:19 35.048784 -106.615557 180 5318ft 0kts
26-Jul-18 18:20 35.048784 -106.615557 180 5317ft 0kts
26-Jul-18 18:21 35.048784 -106.615557 180 5317ft 0kts
26-Jul-18 18:22 35.048784 -106.615557 180 5317ft 0kts
26-Jul-18 18:23 35.048784 -106.615557 180 5317ft 0kts
26-Jul-18 18:24 35.048784 -106.615557 180 5317ft 0kts
26-Jul-18 18:25 35.048784 -106.615557 180 5317ft 0kts
26-Jul-18 18:26 35.048784 -106.615557 180 5317ft 0kts
26-Jul-18 18:27 35.048784 -106.615557 180 5317ft 0kts
26-Jul-18 18:28 35.048349 -106.614207 89 5317ft 6kts
26-Jul-18 18:29 35.048346 -106.613696 90 5317ft 7kts
26-Jul-18 18:30 35.046159 -106.613224 199 5317ft 13kts
26-Jul-18 18:31 35.045558 -106.616926 270 5317ft 11kts
26-Jul-18 18:32 35.045327 -106.621340 201 5318ft 0kts
26-Jul-18 18:33 35.045327 -106.621339 201 5317ft 0kts
26-Jul-18 18:34 35.045327 -106.621339 201 5317ft 0kts
26-Jul-18 18:35 35.045327 -106.621339 201 5317ft 0kts
26-Jul-18 18:36 35.044360 -106.621189 100 5317ft 3kts
26-Jul-18 18:37 35.044349 -106.621019 90 5317ft 0kts
26-Jul-18 18:38 35.044298 -106.594632 92 5491ft 147kts
26-Jul-18 18:39 35.070581 -106.566910 326 6818ft 187kts
26-Jul-18 18:40 35.102295 -106.629302 298 7951ft 244kts
26-Jul-18 18:41 35.137505 -106.709237 286 9418ft 297kts
26-Jul-18 18:42 35.140467 -106.816504 268 10775ft 349kts
26-Jul-18 18:43 35.140987 -106.937222 268 13055ft 360kts
26-Jul-18 18:44 35.141449 -107.059371 268 15621ft 353kts
26-Jul-18 18:45 35.139242 -107.178492 268 17511ft 359kts
26-Jul-18 18:46 35.137322 -107.301854 288 18947ft 366kts
26-Jul-18 18:47 35.170229 -107.420046 290 20426ft 371kts
26-Jul-18 18:48 35.197156 -107.542723 288 21818ft 376kts
26-Jul-18 18:49 35.221624 -107.667763 284 23017ft 382kts
26-Jul-18 18:50 35.244482 -107.795205 284 24097ft 387kts
26-Jul-18 18:51 35.274017 -107.922035 288 25093ft 390kts
26-Jul-18 18:52 35.295798 -108.052507 277 25977ft 396kts
26-Jul-18 18:53 35.307020 -108.186900 277 26762ft 399kts
26-Jul-18 18:54 35.324838 -108.320779 289 27462ft 401kts
26-Jul-18 18:55 35.362416 -108.449167 291 28044ft 405kts
26-Jul-18 18:56 35.403661 -108.578036 291 28661ft 405kts
26-Jul-18 18:57 35.436555 -108.705936 284 29359ft 403kts
26-Jul-18 18:58 35.467657 -108.836220 286 30185ft 397kts
26-Jul-18 18:59 35.452365 -108.966941 247 30246ft 413kts
26-Jul-18 19:00 35.415415 -109.100879 254 30267ft 422kts
26-Jul-18 19:01 35.385991 -109.240792 261 30258ft 426kts
26-Jul-18 19:02 35.366914 -109.383072 262 30262ft 425kts
26-Jul-18 19:03 35.342451 -109.524234 256 30262ft 425kts
26-Jul-18 19:04 35.311160 -109.662454 255 30263ft 424kts
26-Jul-18 19:05 35.279820 -109.800900 256 30266ft 424kts
26-Jul-18 19:06 35.252320 -109.941245 258 30265ft 424kts
26-Jul-18 19:07 35.225349 -110.081234 258 30174ft 426kts
26-Jul-18 19:08 35.196420 -110.221398 256 30155ft 426kts
26-Jul-18 19:09 35.165254 -110.360910 256 30154ft 426kts
26-Jul-18 19:10 35.136696 -110.500735 256 30154ft 426kts
26-Jul-18 19:11 35.106721 -110.640239 254 30154ft 427kts
26-Jul-18 19:12 35.074813 -110.778602 254 30157ft 428kts
26-Jul-18 19:13 35.042648 -110.918535 254 30156ft 428kts
26-Jul-18 19:14 35.010675 -111.058231 254 30156ft 429kts
26-Jul-18 19:15 34.986543 -111.199825 259 30155ft 429kts
26-Jul-18 19:16 34.965359 -111.342412 259 30154ft 429kts
26-Jul-18 19:17 34.944238 -111.485752 259 30041ft 432kts
26-Jul-18 19:18 34.916144 -111.627923 250 29787ft 437kts
26-Jul-18 19:19 34.875378 -111.760680 249 29576ft 440kts
26-Jul-18 19:20 34.832417 -111.900696 249 29354ft 444kts
26-Jul-18 19:21 34.789305 -112.041427 249 29108ft 447kts
26-Jul-18 19:22 34.761621 -112.188586 259 28860ft 447kts
26-Jul-18 19:23 34.737377 -112.335253 255 28989ft 437kts
26-Jul-18 19:24 34.705669 -112.474732 258 29223ft 425kts
26-Jul-18 19:25 34.744586 -112.604661 303 29475ft 426kts
26-Jul-18 19:26 34.801424 -112.725007 290 29720ft 416kts
26-Jul-18 19:27 34.848423 -112.852467 290 29989ft 413kts
26-Jul-18 19:28 34.895623 -112.979772 291 30236ft 413kts
26-Jul-18 19:29 34.943299 -113.108070 291 30241ft 419kts
26-Jul-18 19:30 34.991458 -113.237882 291 30200ft 425kts
26-Jul-18 19:31 35.040406 -113.369956 291 30051ft 431kts
26-Jul-18 19:32 35.089991 -113.503599 292 30013ft 435kts
26-Jul-18 19:33 35.145860 -113.630425 295 27739ft 426kts
26-Jul-18 19:34 35.194069 -113.752963 290 25618ft 413kts
26-Jul-18 19:35 35.237615 -113.879695 294 24056ft 397kts
26-Jul-18 19:36 35.303352 -113.984613 333 22176ft 402kts
26-Jul-18 19:37 35.405316 -114.033788 346 20047ft 391kts
26-Jul-18 19:38 35.504846 -114.075937 331 17966ft 377kts
26-Jul-18 19:39 35.597581 -114.130936 332 15886ft 367kts
26-Jul-18 19:40 35.656883 -114.226435 299 13796ft 347kts
26-Jul-18 19:41 35.706726 -114.326974 301 11990ft 325kts
26-Jul-18 19:42 35.753557 -114.417112 303 12002ft 309kts
26-Jul-18 19:43 35.824990 -114.471406 336 12006ft 310kts
26-Jul-18 19:44 35.904319 -114.512583 336 12005ft 311kts
26-Jul-18 19:45 35.984095 -114.553987 336 12005ft 312kts
26-Jul-18 19:46 36.062016 -114.599861 312 12006ft 309kts
26-Jul-18 19:47 36.077869 -114.696109 270 10731ft 301kts
26-Jul-18 19:48 36.079848 -114.798112 270 9275ft 293kts
26-Jul-18 19:49 36.081915 -114.897665 271 7677ft 287kts
26-Jul-18 19:50 36.084798 -114.994832 270 6304ft 279kts
26-Jul-18 19:51 36.082070 -115.089200 254 4958ft 274kts
26-Jul-18 19:52 36.024128 -115.134333 201 4540ft 255kts
26-Jul-18 19:53 35.982126 -115.185289 290 3942ft 200kts
26-Jul-18 19:54 36.022135 -115.196830 20 3232ft 159kts
26-Jul-18 19:55 36.059044 -115.176188 22 2528ft 142kts
26-Jul-18 19:56 36.090098 -115.158393 25 2120ft 62kts
26-Jul-18 19:57 36.094707 -115.154293 129 2120ft 0kts
26-Jul-18 19:58 36.093747 -115.154100 205 2120ft 14kts
26-Jul-18 19:59 36.090895 -115.155724 203 2120ft 11kts
26-Jul-18 20:00 36.086089 -115.157619 155 2120ft 18kts
26-Jul-18 20:01 36.085469 -115.154944 111 2120ft 0kts

Navigation Log

Ident Type
Flight plan parsing failed, navigation log unavailable